메인 페이지
METAR-TAF:

METAR-TAF

공항 :

미콜라이우, 우크라이나

위도: 47-03-29N, 경도: 031-55-15E, 고도: 56m

현재 날씨관측

예보는 33분 전, 19:00시(UTC)에 발표되었습니다.
10kt
온도 13°C
습도 88%
기압 1017 hPa
시정 10km 이상
1500m 미만 상공 구름 및 적란운 없음

METAR: UKON 251900Z 08005MPS CAVOK 13/11 Q1017 R04/090075 NOSIG

시각: 21:33 (19:33 UTC)

예보

예보는 2 시간 31분 전, 17:02시(UTC)에 발표되었습니다.
예보 대상 시간: 25일 18시부터 26일 03시까지 (UTC)
동북동10kt
시정: 6000m
고도 1000ft 상공 구름 많음
고도 2000ft 상공 구름 보통, 적란운.
일시적
25일 18시부터 26일 03시까지 (UTC)
시정: 1000m
고도 300ft 상공 구름 많음
고도 700ft 상공 구름 많음
박무

TAF: UKON 251702Z 2518/2603 07005MPS 6000 BKN010 SCT020CB TEMPO 2518/2603 1000 BR BKN003 BKN007

4,000개 이상의 공항 관측 자료 및 예보 (METAR 및 TAF 보고).

지도상에서 검색 가능한 기상관측소가 노란 점과 빨간 점으로 표시되어 있습니다.

기상관측소 명을 보려면 표시 위로 마우스를 이동하세요.

날씨 관측과 예보를 보려면 클릭하세요.

지도 변경 : 확대하려면 엑스 표시가 있는 녹색 버튼, 축소하려면 빼기 표시가 있는 녹색 버튼, 다음 페이지의 지도를 보려면 녹색 화살표를 클릭하세요.


METAR-TAF: